Time;durP1;ratioP1;P1;durP2;ratioP2;P2;SDS_P1;SDS_P2;PMS_P1;PMS_P2;Temp;Humidity;BMP_temperature;BMP_pressure;BME280_temperature;BME280_humidity;BME280_pressure;Samples;Min_cycle;Max_cycle;Signal;HPM_P1;HPM_P2
2021/11/19 00:02:42;;;;;;;6.28;2.42;;;;;;;;;;4935564;29;20044;-75
2021/11/19 00:05:47;;;;;;;3.63;2.28;;;;;;;;;;4935804;29;20035;-73
2021/11/19 00:08:52;;;;;;;4.53;2.45;;;;;;;;;;4936014;29;20381;-73
2021/11/19 00:11:56;;;;;;;3.40;2.30;;;;;;;;;;4924445;29;20515;-73
2021/11/19 00:15:00;;;;;;;4.03;2.45;;;;;;;;;;4935740;29;20031;-74
2021/11/19 00:18:05;;;;;;;3.33;2.50;;;;;;;;;;4935854;29;20039;-74
2021/11/19 00:21:09;;;;;;;3.78;2.55;;;;;;;;;;4936021;29;20036;-74
2021/11/19 00:24:13;;;;;;;4.85;2.50;;;;;;;;;;4935962;29;20051;-73
2021/11/19 00:27:19;;;;;;;6.32;2.63;;;;;;;;;;4935603;29;20035;-74
2021/11/19 00:30:25;;;;;;;5.72;2.70;;;;;;;;;;4935336;29;20085;-74
2021/11/19 00:33:30;;;;;;;7.05;2.55;;;;;;;;;;4935376;29;20048;-74
2021/11/19 00:36:36;;;;;;;4.78;2.40;;;;;;;;;;4935210;29;20043;-74
2021/11/19 00:39:40;;;;;;;2.80;2.38;;;;;;;;;;4934762;29;20035;-72
2021/11/19 00:42:45;;;;;;;7.53;2.97;;;;;;;;;;4934819;29;20036;-74
2021/11/19 00:45:50;;;;;;;5.68;2.75;;;;;;;;;;4935753;29;20043;-73
2021/11/19 00:48:55;;;;;;;4.47;3.00;;;;;;;;;;4935484;29;20497;-74
2021/11/19 00:52:02;;;;;;;4.45;2.55;;;;;;;;;;4935463;29;20043;-74
2021/11/19 00:55:07;;;;;;;5.80;2.50;;;;;;;;;;4934843;29;20369;-74
2021/11/19 00:58:12;;;;;;;3.15;1.88;;;;;;;;;;4934468;29;20043;-74
2021/11/19 01:01:19;;;;;;;4.32;2.03;;;;;;;;;;4934410;29;20043;-74
2021/11/19 01:04:23;;;;;;;4.68;2.20;;;;;;;;;;4934167;29;20520;-74
2021/11/19 01:07:28;;;;;;;3.17;1.95;;;;;;;;;;4934993;29;20358;-74
2021/11/19 01:10:34;;;;;;;3.55;2.05;;;;;;;;;;4923090;29;20047;-73
2021/11/19 01:13:40;;;;;;;3.65;1.90;;;;;;;;;;4934194;29;20044;-73
2021/11/19 01:16:47;;;;;;;4.95;2.13;;;;;;;;;;4923678;29;20035;-72
2021/11/19 01:19:56;;;;;;;5.38;2.50;;;;;;;;;;4934270;29;20035;-74
2021/11/19 01:23:02;;;;;;;7.07;2.47;;;;;;;;;;4934681;29;20036;-72
2021/11/19 01:26:09;;;;;;;3.28;2.00;;;;;;;;;;4934030;29;20051;-72
2021/11/19 01:29:15;;;;;;;3.38;2.03;;;;;;;;;;4935150;29;20036;-72
2021/11/19 01:32:22;;;;;;;6.63;2.40;;;;;;;;;;4933656;29;20044;-72
2021/11/19 01:35:50;;;;;;;5.15;2.80;;;;;;;;;;4933826;29;20048;-72
2021/11/19 01:39:27;;;;;;;7.40;2.92;;;;;;;;;;4938547;29;20043;-75
2021/11/19 01:42:53;;;;;;;6.43;3.67;;;;;;;;;;4934088;29;20472;-75
2021/11/19 01:45:59;;;;;;;6.03;3.85;;;;;;;;;;4933718;29;20036;-74
2021/11/19 01:49:05;;;;;;;6.00;3.95;;;;;;;;;;4934834;29;20051;-72
2021/11/19 01:52:13;;;;;;;7.80;4.50;;;;;;;;;;4933644;29;20044;-74
2021/11/19 01:55:24;;;;;;;5.90;4.10;;;;;;;;;;4933396;29;20040;-75
2021/11/19 01:58:34;;;;;;;8.35;5.22;;;;;;;;;;4933557;29;20043;-75
2021/11/19 02:01:47;;;;;;;7.40;4.45;;;;;;;;;;4933568;29;20047;-74
2021/11/19 02:04:59;;;;;;;8.63;4.85;;;;;;;;;;4933829;29;20044;-74
2021/11/19 02:08:10;;;;;;;13.45;5.22;;;;;;;;;;4933534;29;20484;-74
2021/11/19 02:11:26;;;;;;;8.68;5.70;;;;;;;;;;4933514;29;20048;-74
2021/11/19 02:14:40;;;;;;;15.77;5.78;;;;;;;;;;4933650;29;20039;-73
2021/11/19 02:17:48;;;;;;;12.48;6.20;;;;;;;;;;4933744;29;20052;-73
2021/11/19 02:21:01;;;;;;;9.32;6.15;;;;;;;;;;4933609;29;20520;-74
2021/11/19 02:24:12;;;;;;;9.20;5.93;;;;;;;;;;4933733;29;20040;-73
2021/11/19 02:27:38;;;;;;;10.38;6.00;;;;;;;;;;4933654;29;20028;-74
2021/11/19 02:30:47;;;;;;;13.18;6.50;;;;;;;;;;4935443;29;20393;-74
2021/11/19 02:33:55;;;;;;;11.05;5.88;;;;;;;;;;4937016;29;20050;-75
2021/11/19 02:37:04;;;;;;;9.75;5.95;;;;;;;;;;4936850;29;20047;-74
2021/11/19 02:40:16;;;;;;;11.98;6.32;;;;;;;;;;4936793;29;20047;-73
2021/11/19 02:43:24;;;;;;;9.48;6.18;;;;;;;;;;4937120;29;20039;-74
2021/11/19 02:46:30;;;;;;;8.25;6.20;;;;;;;;;;4925588;29;20044;-73
2021/11/19 02:49:36;;;;;;;11.48;6.07;;;;;;;;;;4925725;29;20040;-73
2021/11/19 02:52:42;;;;;;;10.52;6.82;;;;;;;;;;4936944;29;20043;-74
2021/11/19 02:55:50;;;;;;;13.73;7.03;;;;;;;;;;4936710;29;20045;-74
2021/11/19 02:58:57;;;;;;;10.38;6.10;;;;;;;;;;4936453;29;20043;-75
2021/11/19 03:02:03;;;;;;;9.25;6.35;;;;;;;;;;4936639;29;20051;-74
2021/11/19 03:05:10;;;;;;;10.30;7.15;;;;;;;;;;4937641;29;20048;-75
2021/11/19 03:08:14;;;;;;;11.23;6.88;;;;;;;;;;4936417;29;20036;-73
2021/11/19 03:11:19;;;;;;;10.73;5.97;;;;;;;;;;4935989;29;20047;-74
2021/11/19 03:14:24;;;;;;;11.65;7.13;;;;;;;;;;4936288;29;20035;-74
2021/11/19 03:17:29;;;;;;;11.45;6.05;;;;;;;;;;4937179;29;20488;-74
2021/11/19 03:20:34;;;;;;;12.27;6.90;;;;;;;;;;4936376;29;20507;-75
2021/11/19 03:23:39;;;;;;;11.18;7.32;;;;;;;;;;4936084;29;20040;-73
2021/11/19 03:26:47;;;;;;;10.30;6.68;;;;;;;;;;4935935;29;20535;-73
2021/11/19 03:29:52;;;;;;;12.20;7.53;;;;;;;;;;4936122;29;20043;-74
2021/11/19 03:32:56;;;;;;;10.20;6.13;;;;;;;;;;4935903;29;20047;-75
2021/11/19 03:36:01;;;;;;;9.90;6.57;;;;;;;;;;4935879;29;20043;-73
2021/11/19 03:39:06;;;;;;;8.45;6.28;;;;;;;;;;4936105;29;20043;-74
2021/11/19 03:42:12;;;;;;;9.38;5.85;;;;;;;;;;4936062;29;20044;-74
2021/11/19 03:45:20;;;;;;;8.93;6.35;;;;;;;;;;4935826;29;20036;-74
2021/11/19 03:48:26;;;;;;;10.50;7.10;;;;;;;;;;4935654;29;20039;-73
2021/11/19 03:51:38;;;;;;;9.55;6.43;;;;;;;;;;4935585;29;20051;-72
2021/11/19 03:54:44;;;;;;;12.60;6.53;;;;;;;;;;4935432;29;20032;-72
2021/11/19 03:57:49;;;;;;;11.38;6.80;;;;;;;;;;4935349;29;20048;-72
2021/11/19 04:01:00;;;;;;;10.40;6.85;;;;;;;;;;4935448;29;20044;-74
2021/11/19 04:04:05;;;;;;;11.18;6.80;;;;;;;;;;4935516;29;20543;-73
2021/11/19 04:07:13;;;;;;;11.27;6.15;;;;;;;;;;4935217;29;20048;-73
2021/11/19 04:10:20;;;;;;;9.88;6.90;;;;;;;;;;4925032;29;20058;-74
2021/11/19 04:13:25;;;;;;;10.40;7.10;;;;;;;;;;4935210;29;20043;-74
2021/11/19 04:16:36;;;;;;;10.15;7.22;;;;;;;;;;4936124;29;20039;-74
2021/11/19 04:19:40;;;;;;;11.38;7.15;;;;;;;;;;4935873;29;20052;-73
2021/11/19 04:22:46;;;;;;;12.65;7.28;;;;;;;;;;4935145;29;20045;-73
2021/11/19 04:25:54;;;;;;;13.68;7.45;;;;;;;;;;4935083;29;20040;-73
2021/11/19 04:28:58;;;;;;;12.32;7.97;;;;;;;;;;4935017;29;20035;-74
2021/11/19 04:32:25;;;;;;;12.98;7.55;;;;;;;;;;4935504;29;20058;-74
2021/11/19 04:35:31;;;;;;;12.38;7.22;;;;;;;;;;4934825;29;20048;-73
2021/11/19 04:38:40;;;;;;;12.43;7.07;;;;;;;;;;4934742;29;20054;-73
2021/11/19 04:41:44;;;;;;;12.50;7.03;;;;;;;;;;4934798;29;20412;-73
2021/11/19 04:44:49;;;;;;;12.10;8.05;;;;;;;;;;4934633;29;20392;-73
2021/11/19 04:47:54;;;;;;;13.40;7.55;;;;;;;;;;4934263;29;20046;-74
2021/11/19 04:50:58;;;;;;;14.10;8.10;;;;;;;;;;4922964;29;20058;-73
2021/11/19 04:54:04;;;;;;;11.30;7.57;;;;;;;;;;4923259;29;20047;-74
2021/11/19 04:57:09;;;;;;;17.08;8.50;;;;;;;;;;4933985;29;20055;-73
2021/11/19 05:00:17;;;;;;;14.70;7.68;;;;;;;;;;4923207;29;20491;-73
2021/11/19 05:03:41;;;;;;;13.77;8.57;;;;;;;;;;4935045;29;20044;-73
2021/11/19 05:06:45;;;;;;;11.63;7.82;;;;;;;;;;4934076;29;20039;-73
2021/11/19 05:09:50;;;;;;;10.70;7.90;;;;;;;;;;4933648;29;20043;-74
2021/11/19 05:12:55;;;;;;;18.60;8.27;;;;;;;;;;4933946;29;20050;-73
2021/11/19 05:16:01;;;;;;;14.25;8.38;;;;;;;;;;4933767;29;20044;-74
2021/11/19 05:19:06;;;;;;;10.70;8.25;;;;;;;;;;4933861;29;20498;-73
2021/11/19 05:22:12;;;;;;;16.90;8.27;;;;;;;;;;4933681;29;20046;-73
2021/11/19 05:25:18;;;;;;;13.55;8.27;;;;;;;;;;4933647;29;20043;-74
2021/11/19 05:28:22;;;;;;;13.50;7.00;;;;;;;;;;4934035;29;20039;-74
2021/11/19 05:31:28;;;;;;;15.10;8.25;;;;;;;;;;4933950;29;20492;-73
2021/11/19 05:34:32;;;;;;;12.10;8.05;;;;;;;;;;4934770;29;20052;-74
2021/11/19 05:37:38;;;;;;;12.30;8.45;;;;;;;;;;4934655;29;20487;-74
2021/11/19 05:40:42;;;;;;;13.13;8.23;;;;;;;;;;4934098;29;20051;-72
2021/11/19 05:43:49;;;;;;;10.73;7.80;;;;;;;;;;4934603;29;20043;-72
2021/11/19 05:47:22;;;;;;;15.20;8.57;;;;;;;;;;4938346;29;20036;-74
2021/11/19 05:50:35;;;;;;;16.08;8.18;;;;;;;;;;4933664;29;20060;-73
2021/11/19 05:53:40;;;;;;;14.57;8.25;;;;;;;;;;4934120;29;20040;-73
2021/11/19 05:56:44;;;;;;;17.33;8.80;;;;;;;;;;4933990;29;20051;-73
2021/11/19 05:59:49;;;;;;;15.18;9.13;;;;;;;;;;4933982;29;20396;-75
2021/11/19 06:03:12;;;;;;;15.18;8.98;;;;;;;;;;4934230;29;20040;-73
2021/11/19 06:06:30;;;;;;;19.10;8.98;;;;;;;;;;4936869;29;20047;-75
2021/11/19 06:09:54;;;;;;;12.60;8.45;;;;;;;;;;4937695;29;20407;-75
2021/11/19 06:13:07;;;;;;;12.77;8.50;;;;;;;;;;4937244;29;20373;-74
2021/11/19 06:16:14;;;;;;;14.93;8.07;;;;;;;;;;4937597;29;20043;-75
2021/11/19 06:19:23;;;;;;;16.95;8.48;;;;;;;;;;4926254;29;20530;-74
2021/11/19 06:22:31;;;;;;;12.60;8.10;;;;;;;;;;4925637;29;20032;-74
2021/11/19 06:25:37;;;;;;;12.73;7.93;;;;;;;;;;4937024;29;20036;-72
2021/11/19 06:28:45;;;;;;;13.48;8.43;;;;;;;;;;4936975;29;20036;-71
2021/11/19 06:31:51;;;;;;;16.02;7.10;;;;;;;;;;4936747;29;20047;-72
2021/11/19 06:34:55;;;;;;;13.70;6.78;;;;;;;;;;4936841;29;20052;-70
2021/11/19 06:38:01;;;;;;;11.68;7.13;;;;;;;;;;4936498;29;20040;-70
2021/11/19 06:41:25;;;;;;;11.23;7.07;;;;;;;;;;4936990;29;20042;-69
2021/11/19 06:44:55;;;;;;;12.32;6.60;;;;;;;;;;4929319;29;20039;-70
2021/11/19 06:48:08;;;;;;;11.68;6.93;;;;;;;;;;4936638;29;20047;-70
2021/11/19 06:51:16;;;;;;;9.00;6.50;;;;;;;;;;4937216;29;20047;-70
2021/11/19 06:54:33;;;;;;;11.55;7.07;;;;;;;;;;4926203;29;20504;-71
2021/11/19 06:57:48;;;;;;;16.02;7.15;;;;;;;;;;4937753;29;20036;-70
2021/11/19 07:00:52;;;;;;;9.38;6.40;;;;;;;;;;4936076;29;20048;-70
2021/11/19 07:03:57;;;;;;;10.40;6.80;;;;;;;;;;4933953;29;20048;-69
2021/11/19 07:07:03;;;;;;;8.23;6.30;;;;;;;;;;4935506;29;20044;-75
2021/11/19 07:10:09;;;;;;;11.60;6.22;;;;;;;;;;4937758;29;20047;-70
2021/11/19 07:13:13;;;;;;;11.55;5.88;;;;;;;;;;4925374;29;20056;-69
2021/11/19 07:16:21;;;;;;;12.65;6.40;;;;;;;;;;4935723;29;20051;-70
2021/11/19 07:19:25;;;;;;;12.85;5.82;;;;;;;;;;4936773;29;20047;-71
2021/11/19 07:22:30;;;;;;;9.90;6.00;;;;;;;;;;4925176;29;20044;-72
2021/11/19 07:25:41;;;;;;;11.32;6.35;;;;;;;;;;4935905;29;20036;-72
2021/11/19 07:28:46;;;;;;;8.55;5.32;;;;;;;;;;4936198;29;20499;-72
2021/11/19 07:32:09;;;;;;;10.98;6.03;;;;;;;;;;4935761;29;20043;-72
2021/11/19 07:35:32;;;;;;;17.10;6.47;;;;;;;;;;4937136;29;20048;-72
2021/11/19 07:39:15;;;;;;;17.58;6.88;;;;;;;;;;4933418;29;20054;-73
2021/11/19 07:42:58;;;;;;;15.60;6.07;;;;;;;;;;4896733;29;20048;-71
2021/11/19 07:46:17;;;;;;;13.75;6.50;;;;;;;;;;4899479;29;20169;-74
2021/11/19 07:49:25;;;;;;;141.25;16.05;;;;;;;;;;4936840;29;20043;-75
2021/11/19 07:52:33;;;;;;;32.90;7.35;;;;;;;;;;4936845;29;20064;-76
2021/11/19 07:55:38;;;;;;;11.02;6.25;;;;;;;;;;4935834;29;20369;-72
2021/11/19 07:58:42;;;;;;;13.25;6.20;;;;;;;;;;4936532;29;20055;-72
2021/11/19 08:01:47;;;;;;;9.85;5.82;;;;;;;;;;4936014;29;20046;-71
2021/11/19 08:04:53;;;;;;;10.80;7.10;;;;;;;;;;4935763;29;20489;-72
2021/11/19 08:08:03;;;;;;;11.85;6.78;;;;;;;;;;4935618;29;20399;-72
2021/11/19 08:11:12;;;;;;;12.73;6.57;;;;;;;;;;4935348;29;20042;-72
2021/11/19 08:14:18;;;;;;;11.68;6.07;;;;;;;;;;4924549;29;20043;-73
2021/11/19 08:17:28;;;;;;;10.25;6.13;;;;;;;;;;4935323;29;20039;-72
2021/11/19 08:20:40;;;;;;;11.00;6.70;;;;;;;;;;4935142;29;20050;-73
2021/11/19 08:23:48;;;;;;;9.52;6.03;;;;;;;;;;4935271;29;20050;-73
2021/11/19 08:26:54;;;;;;;10.35;5.97;;;;;;;;;;4935137;29;20048;-71
2021/11/19 08:30:00;;;;;;;9.27;6.97;;;;;;;;;;4936282;29;20408;-72
2021/11/19 08:33:06;;;;;;;8.45;5.95;;;;;;;;;;4936147;29;20365;-73
2021/11/19 08:36:11;;;;;;;21.30;8.50;;;;;;;;;;4935865;29;20044;-72
2021/11/19 08:39:17;;;;;;;9.15;5.85;;;;;;;;;;4936311;29;20048;-72
2021/11/19 08:42:22;;;;;;;10.32;6.60;;;;;;;;;;4936555;29;20036;-72
2021/11/19 08:45:30;;;;;;;9.80;5.72;;;;;;;;;;4936485;29;20051;-73
2021/11/19 08:48:36;;;;;;;9.80;6.30;;;;;;;;;;4935955;29;20035;-76
2021/11/19 08:51:41;;;;;;;9.93;6.75;;;;;;;;;;4935098;29;20055;-74
2021/11/19 08:54:45;;;;;;;11.18;6.85;;;;;;;;;;4935766;29;20484;-73
2021/11/19 08:57:50;;;;;;;11.85;7.13;;;;;;;;;;4935651;29;20195;-72
2021/11/19 09:00:55;;;;;;;12.32;6.45;;;;;;;;;;4934965;29;20497;-73
2021/11/19 09:03:59;;;;;;;13.52;8.43;;;;;;;;;;4935666;29;20444;-73
2021/11/19 09:07:04;;;;;;;15.45;7.93;;;;;;;;;;4935478;29;20043;-72
2021/11/19 09:10:11;;;;;;;12.98;7.47;;;;;;;;;;4935155;29;20036;-71
2021/11/19 09:13:16;;;;;;;11.85;7.35;;;;;;;;;;4935408;29;20514;-72
2021/11/19 09:16:22;;;;;;;14.15;8.15;;;;;;;;;;4935369;29;20492;-73
2021/11/19 09:19:46;;;;;;;10.98;7.13;;;;;;;;;;4935874;29;20048;-71
2021/11/19 09:23:16;;;;;;;10.65;7.13;;;;;;;;;;4934409;29;20042;-72
2021/11/19 09:26:23;;;;;;;12.07;7.35;;;;;;;;;;4934614;29;20040;-73
2021/11/19 09:29:35;;;;;;;9.05;6.75;;;;;;;;;;4933973;29;20405;-74
2021/11/19 09:32:39;;;;;;;10.88;6.35;;;;;;;;;;4932620;29;20052;-71
2021/11/19 09:35:44;;;;;;;8.75;6.43;;;;;;;;;;4934189;29;20040;-73
2021/11/19 09:38:49;;;;;;;8.55;5.65;;;;;;;;;;4935795;29;20039;-71
2021/11/19 09:41:58;;;;;;;7.90;5.85;;;;;;;;;;4940681;29;20047;-75
2021/11/19 09:45:21;;;;;;;14.45;5.72;;;;;;;;;;4938716;29;20040;-72
2021/11/19 09:48:43;;;;;;;17.63;7.78;;;;;;;;;;4938996;29;20035;-72
2021/11/19 09:52:08;;;;;;;12.15;6.95;;;;;;;;;;4940461;29;20051;-74
2021/11/19 09:55:27;;;;;;;17.52;8.30;;;;;;;;;;4929690;29;20047;-72
2021/11/19 09:58:47;;;;;;;12.20;7.68;;;;;;;;;;4940104;29;20464;-71
2021/11/19 10:01:54;;;;;;;10.90;7.88;;;;;;;;;;4939360;29;20050;-71
2021/11/19 10:05:18;;;;;;;14.73;7.70;;;;;;;;;;4940504;29;20039;-73
2021/11/19 10:08:25;;;;;;;16.77;8.60;;;;;;;;;;4940662;29;20054;-73
2021/11/19 10:11:30;;;;;;;10.95;6.75;;;;;;;;;;4939938;29;20071;-72
2021/11/19 10:14:34;;;;;;;13.75;7.60;;;;;;;;;;4939207;29;20053;-73
2021/11/19 10:17:46;;;;;;;10.57;7.05;;;;;;;;;;4941437;29;20694;-71
2021/11/19 10:20:51;;;;;;;8.57;6.35;;;;;;;;;;4939425;29;20051;-72
2021/11/19 10:23:58;;;;;;;18.30;7.18;;;;;;;;;;4941067;29;20043;-73
2021/11/19 10:27:03;;;;;;;14.10;7.55;;;;;;;;;;4939226;29;20039;-71
2021/11/19 10:30:26;;;;;;;9.95;6.60;;;;;;;;;;4939226;29;20052;-75
2021/11/19 10:33:32;;;;;;;8.65;6.03;;;;;;;;;;4939558;29;20048;-71
2021/11/19 10:36:40;;;;;;;10.40;6.45;;;;;;;;;;4941000;29;20036;-82
2021/11/19 10:39:59;;;;;;;14.70;7.25;;;;;;;;;;4941810;29;20611;-78
2021/11/19 10:43:25;;;;;;;8.77;6.03;;;;;;;;;;4944521;29;20039;-78
2021/11/19 10:46:49;;;;;;;8.48;6.00;;;;;;;;;;4942580;29;20027;-77
2021/11/19 10:49:56;;;;;;;10.23;5.70;;;;;;;;;;4942969;29;20047;-78
2021/11/19 10:53:29;;;;;;;10.57;5.93;;;;;;;;;;4941792;29;20058;-76
2021/11/19 10:56:36;;;;;;;11.23;6.22;;;;;;;;;;4937394;29;20036;-72
2021/11/19 10:59:45;;;;;;;8.85;5.80;;;;;;;;;;4937056;29;20381;-77
2021/11/19 11:02:51;;;;;;;9.45;6.07;;;;;;;;;;4938885;29;20047;-73
2021/11/19 11:06:00;;;;;;;8.43;5.40;;;;;;;;;;4936895;29;20479;-73
2021/11/19 11:09:25;;;;;;;10.18;6.60;;;;;;;;;;4935988;29;20044;-72
2021/11/19 11:12:52;;;;;;;9.50;6.50;;;;;;;;;;4936574;29;20058;-72
2021/11/19 11:16:16;;;;;;;6.97;5.47;;;;;;;;;;4935765;29;20039;-72
2021/11/19 11:19:24;;;;;;;11.63;6.07;;;;;;;;;;4938301;29;20040;-73
2021/11/19 11:22:30;;;;;;;7.45;5.25;;;;;;;;;;4935981;29;20055;-72
2021/11/19 11:25:36;;;;;;;9.98;6.28;;;;;;;;;;4935677;29;20044;-73
2021/11/19 11:28:44;;;;;;;7.95;5.50;;;;;;;;;;4936188;29;20044;-75
2021/11/19 11:32:24;;;;;;;6.45;5.07;;;;;;;;;;4937209;29;20064;-72
2021/11/19 11:35:28;;;;;;;8.98;5.63;;;;;;;;;;4904729;29;20049;-79
2021/11/19 11:38:45;;;;;;;8.50;5.20;;;;;;;;;;4939510;29;20047;-75
2021/11/19 11:41:49;;;;;;;11.15;5.78;;;;;;;;;;4942692;29;20048;-76
2021/11/19 11:44:56;;;;;;;6.97;5.32;;;;;;;;;;4939390;29;20035;-78
2021/11/19 11:48:19;;;;;;;8.98;6.03;;;;;;;;;;4937711;29;20036;-78
2021/11/19 11:51:26;;;;;;;9.35;5.60;;;;;;;;;;4940440;29;20039;-84
2021/11/19 11:54:30;;;;;;;10.60;6.20;;;;;;;;;;4941695;29;20507;-77
2021/11/19 11:57:50;;;;;;;9.15;6.50;;;;;;;;;;4936913;29;20039;-72
2021/11/19 12:01:02;;;;;;;7.57;5.72;;;;;;;;;;4941223;29;20040;-78
2021/11/19 12:04:10;;;;;;;8.55;5.18;;;;;;;;;;4944428;29;20039;-77
2021/11/19 12:07:35;;;;;;;6.65;5.10;;;;;;;;;;4942599;29;20484;-79
2021/11/19 12:10:58;;;;;;;7.47;5.60;;;;;;;;;;4946956;29;20020;-78
2021/11/19 12:14:08;;;;;;;9.32;5.68;;;;;;;;;;4949121;29;20040;-80
2021/11/19 12:17:31;;;;;;;7.20;5.38;;;;;;;;;;4942967;29;20369;-79
2021/11/19 12:20:54;;;;;;;9.55;4.97;;;;;;;;;;4946374;29;20194;-78
2021/11/19 12:24:03;;;;;;;7.30;4.78;;;;;;;;;;4946308;29;20044;-78
2021/11/19 12:27:14;;;;;;;7.70;4.90;;;;;;;;;;4943980;29;20043;-80
2021/11/19 12:30:31;;;;;;;8.38;6.10;;;;;;;;;;4942546;29;20039;-77
2021/11/19 12:33:41;;;;;;;10.40;5.43;;;;;;;;;;4943094;29;20048;-79
2021/11/19 12:37:01;;;;;;;10.65;5.40;;;;;;;;;;4942930;29;20043;-79
2021/11/19 12:40:24;;;;;;;8.55;5.68;;;;;;;;;;4941436;29;20039;-79
2021/11/19 12:43:40;;;;;;;7.95;5.70;;;;;;;;;;4945188;29;20051;-79
2021/11/19 12:47:04;;;;;;;8.30;5.30;;;;;;;;;;4940707;29;20043;-78
2021/11/19 12:50:32;;;;;;;14.65;5.90;;;;;;;;;;4943284;29;20392;-80
2021/11/19 12:53:36;;;;;;;7.05;5.28;;;;;;;;;;4940779;29;20047;-81
2021/11/19 12:56:53;;;;;;;8.52;5.72;;;;;;;;;;4942355;29;20036;-80
2021/11/19 13:00:04;;;;;;;6.13;4.78;;;;;;;;;;4942453;28;20484;-80
2021/11/19 13:03:19;;;;;;;7.00;5.43;;;;;;;;;;4929455;29;20035;-79
2021/11/19 13:06:30;;;;;;;9.30;5.13;;;;;;;;;;4942456;29;20047;-79
2021/11/19 13:09:43;;;;;;;7.55;4.80;;;;;;;;;;4941177;29;20044;-80
2021/11/19 13:12:58;;;;;;;11.88;4.90;;;;;;;;;;4943160;29;20043;-79
2021/11/19 13:16:22;;;;;;;7.32;5.07;;;;;;;;;;4940882;29;20043;-69
2021/11/19 13:19:30;;;;;;;12.45;5.43;;;;;;;;;;4942851;29;20484;-76
2021/11/19 13:22:36;;;;;;;7.85;4.60;;;;;;;;;;4939611;29;20043;-83
2021/11/19 13:25:43;;;;;;;10.80;6.60;;;;;;;;;;4940278;29;20039;-74
2021/11/19 13:28:52;;;;;;;6.82;5.03;;;;;;;;;;4937012;29;20043;-74
2021/11/19 13:31:56;;;;;;;10.32;5.10;;;;;;;;;;4941767;29;20480;-75
2021/11/19 13:35:11;;;;;;;8.02;5.15;;;;;;;;;;4943816;29;20055;-76
2021/11/19 13:38:16;;;;;;;7.13;5.32;;;;;;;;;;4941280;29;20044;-76
2021/11/19 13:41:28;;;;;;;10.15;6.20;;;;;;;;;;4939222;29;20035;-71
2021/11/19 13:44:48;;;;;;;11.40;6.72;;;;;;;;;;4936081;29;20496;-73
2021/11/19 13:48:12;;;;;;;15.80;7.47;;;;;;;;;;4935701;29;20046;-76
2021/11/19 13:51:20;;;;;;;14.82;7.30;;;;;;;;;;4938259;29;20035;-76
2021/11/19 13:54:28;;;;;;;9.57;7.03;;;;;;;;;;4938732;29;20476;-77
2021/11/19 13:57:38;;;;;;;10.00;7.03;;;;;;;;;;4939865;29;20040;-79
2021/11/19 14:00:45;;;;;;;9.00;6.77;;;;;;;;;;4937638;29;20039;-71
2021/11/19 14:03:51;;;;;;;11.95;6.60;;;;;;;;;;4938721;29;20043;-76
2021/11/19 14:07:01;;;;;;;10.75;6.70;;;;;;;;;;4943276;29;20204;-81
2021/11/19 14:10:15;;;;;;;14.30;6.37;;;;;;;;;;4939815;29;20043;-77
2021/11/19 14:13:33;;;;;;;12.48;6.57;;;;;;;;;;4934117;29;20051;-76
2021/11/19 14:16:37;;;;;;;14.18;7.43;;;;;;;;;;4934309;29;20039;-74
2021/11/19 14:19:59;;;;;;;13.38;7.82;;;;;;;;;;4935024;29;20055;-79
2021/11/19 14:23:24;;;;;;;11.48;6.95;;;;;;;;;;4936463;29;20040;-78
2021/11/19 14:26:36;;;;;;;11.13;6.03;;;;;;;;;;4936011;29;20484;-76
2021/11/19 14:29:43;;;;;;;7.43;5.22;;;;;;;;;;4938634;29;20043;-74
2021/11/19 14:32:52;;;;;;;11.13;5.65;;;;;;;;;;4937487;29;20052;-74
2021/11/19 14:35:57;;;;;;;16.83;8.40;;;;;;;;;;4937663;29;20138;-72
2021/11/19 14:39:07;;;;;;;14.25;8.25;;;;;;;;;;4939331;29;20039;-78
2021/11/19 14:42:13;;;;;;;12.85;7.60;;;;;;;;;;4937030;29;20048;-73
2021/11/19 14:45:41;;;;;;;11.90;6.47;;;;;;;;;;4938962;29;20036;-69
2021/11/19 14:49:09;;;;;;;9.25;6.10;;;;;;;;;;4938015;29;20061;-75
2021/11/19 14:52:21;;;;;;;10.70;5.00;;;;;;;;;;4937255;29;20048;-74
2021/11/19 14:55:31;;;;;;;10.25;4.80;;;;;;;;;;4936885;29;20040;-72
2021/11/19 14:58:36;;;;;;;11.35;5.38;;;;;;;;;;4937372;29;20035;-78
2021/11/19 15:01:50;;;;;;;7.35;4.60;;;;;;;;;;4937861;29;20048;-73
2021/11/19 15:04:55;;;;;;;8.68;5.00;;;;;;;;;;4936871;29;20047;-76
2021/11/19 15:08:14;;;;;;;8.35;5.50;;;;;;;;;;4937340;29;20044;-77
2021/11/19 15:11:24;;;;;;;11.43;5.53;;;;;;;;;;4938086;29;20035;-76
2021/11/19 15:14:34;;;;;;;13.77;6.18;;;;;;;;;;4936593;29;20043;-75
2021/11/19 15:17:44;;;;;;;9.48;5.15;;;;;;;;;;4936400;29;20047;-78
2021/11/19 15:21:05;;;;;;;8.63;4.85;;;;;;;;;;4936563;29;20484;-76
2021/11/19 15:24:13;;;;;;;9.38;5.22;;;;;;;;;;4936006;29;20039;-70
2021/11/19 15:27:37;;;;;;;13.45;5.97;;;;;;;;;;4935561;29;20035;-73
2021/11/19 15:30:41;;;;;;;9.90;5.43;;;;;;;;;;4926555;29;20029;-70
2021/11/19 15:34:05;;;;;;;12.27;5.32;;;;;;;;;;4924700;29;20056;-73
2021/11/19 15:37:31;;;;;;;13.63;6.90;;;;;;;;;;4935611;29;20043;-76
2021/11/19 15:40:36;;;;;;;11.07;6.05;;;;;;;;;;4937217;29;20039;-74
2021/11/19 15:43:41;;;;;;;12.63;5.85;;;;;;;;;;4937370;29;20039;-72
2021/11/19 15:46:48;;;;;;;10.88;5.68;;;;;;;;;;4935931;29;20420;-73
2021/11/19 15:49:56;;;;;;;12.50;6.10;;;;;;;;;;4936094;29;20580;-77
2021/11/19 15:53:02;;;;;;;8.23;5.63;;;;;;;;;;4938805;29;20043;-80
2021/11/19 15:56:32;;;;;;;17.15;6.85;;;;;;;;;;4936868;29;20044;-80
2021/11/19 15:59:47;;;;;;;9.67;6.23;;;;;;;;;;4931754;29;20051;-77
2021/11/19 16:02:57;;;;;;;16.13;7.43;;;;;;;;;;4934908;29;20032;-73
2021/11/19 16:06:20;;;;;;;18.52;7.15;;;;;;;;;;4934744;29;20044;-73
2021/11/19 16:09:34;;;;;;;19.77;7.18;;;;;;;;;;4935524;29;20036;-74
2021/11/19 16:12:51;;;;;;;12.15;6.05;;;;;;;;;;4934924;29;20052;-75
2021/11/19 16:16:00;;;;;;;15.95;6.65;;;;;;;;;;4936134;29;20043;-75
2021/11/19 16:19:05;;;;;;;36.92;6.22;;;;;;;;;;4935170;29;20047;-71
2021/11/19 16:22:14;;;;;;;16.77;6.13;;;;;;;;;;4935950;29;20069;-72
2021/11/19 16:25:19;;;;;;;15.40;6.68;;;;;;;;;;4935001;29;20047;-72
2021/11/19 16:28:24;;;;;;;21.25;7.50;;;;;;;;;;4934675;29;20171;-77
2021/11/19 16:31:29;;;;;;;15.02;7.35;;;;;;;;;;4939778;29;20036;-81
2021/11/19 16:34:34;;;;;;;12.18;6.90;;;;;;;;;;4942613;29;20527;-78
2021/11/19 16:37:38;;;;;;;13.18;7.00;;;;;;;;;;4936274;29;20044;-74
2021/11/19 16:40:47;;;;;;;12.02;7.40;;;;;;;;;;4936504;29;20047;-78
2021/11/19 16:43:52;;;;;;;8.30;6.25;;;;;;;;;;4938331;29;20395;-75
2021/11/19 16:46:57;;;;;;;12.50;6.35;;;;;;;;;;4939404;29;20035;-79
2021/11/19 16:50:02;;;;;;;9.55;6.00;;;;;;;;;;4942462;29;20456;-81
2021/11/19 16:53:09;;;;;;;10.05;6.07;;;;;;;;;;4939138;29;20059;-77
2021/11/19 16:56:13;;;;;;;12.65;6.40;;;;;;;;;;4935668;29;20046;-76
2021/11/19 16:59:18;;;;;;;11.30;6.80;;;;;;;;;;4935504;29;20032;-76
2021/11/19 17:02:22;;;;;;;15.98;7.10;;;;;;;;;;4934807;29;20048;-73
2021/11/19 17:05:28;;;;;;;15.10;6.15;;;;;;;;;;4938317;29;20043;-77
2021/11/19 17:08:33;;;;;;;13.27;6.78;;;;;;;;;;4936151;29;20039;-77
2021/11/19 17:11:38;;;;;;;19.83;7.75;;;;;;;;;;4934422;29;20043;-72
2021/11/19 17:14:42;;;;;;;23.20;8.98;;;;;;;;;;4935006;29;20051;-76
2021/11/19 17:17:47;;;;;;;19.77;8.93;;;;;;;;;;4936894;29;20385;-73
2021/11/19 17:20:53;;;;;;;17.35;8.18;;;;;;;;;;4941012;29;20051;-82
2021/11/19 17:23:58;;;;;;;14.43;8.73;;;;;;;;;;4938757;29;20052;-79
2021/11/19 17:27:05;;;;;;;16.23;8.88;;;;;;;;;;4936228;29;20043;-73
2021/11/19 17:30:10;;;;;;;17.30;8.93;;;;;;;;;;4934085;29;20035;-73
2021/11/19 17:33:16;;;;;;;16.77;8.57;;;;;;;;;;4934470;29;20060;-75
2021/11/19 17:36:21;;;;;;;20.45;8.60;;;;;;;;;;4936727;29;20044;-76
2021/11/19 17:39:28;;;;;;;14.60;8.93;;;;;;;;;;4936437;29;20404;-85
2021/11/19 17:42:33;;;;;;;18.40;8.18;;;;;;;;;;4939550;29;20054;-80
2021/11/19 17:45:40;;;;;;;12.93;7.75;;;;;;;;;;4941761;29;20043;-76
2021/11/19 17:48:47;;;;;;;18.33;8.23;;;;;;;;;;4940818;29;20055;-78
2021/11/19 17:51:53;;;;;;;24.27;11.35;;;;;;;;;;4936308;29;20043;-77
2021/11/19 17:54:57;;;;;;;23.15;12.27;;;;;;;;;;4943439;29;20514;-78
2021/11/19 17:58:02;;;;;;;17.30;10.40;;;;;;;;;;4940429;29;20046;-75
2021/11/19 18:01:14;;;;;;;14.38;9.27;;;;;;;;;;4942353;29;20046;-73
2021/11/19 18:04:19;;;;;;;16.42;9.73;;;;;;;;;;4943263;29;20473;-76
2021/11/19 18:07:23;;;;;;;13.55;8.18;;;;;;;;;;4938953;29;20055;-79
2021/11/19 18:10:28;;;;;;;12.98;7.35;;;;;;;;;;4938273;29;20047;-76
2021/11/19 18:13:33;;;;;;;12.93;7.60;;;;;;;;;;4937848;29;20423;-76
2021/11/19 18:16:39;;;;;;;12.88;8.10;;;;;;;;;;4936776;29;20046;-74
2021/11/19 18:19:44;;;;;;;12.05;7.60;;;;;;;;;;4938368;29;20059;-76
2021/11/19 18:22:49;;;;;;;19.23;7.80;;;;;;;;;;4938084;29;20396;-76
2021/11/19 18:25:55;;;;;;;11.45;7.97;;;;;;;;;;4937908;29;20039;-76
2021/11/19 18:29:00;;;;;;;13.60;7.93;;;;;;;;;;4938179;29;20044;-75
2021/11/19 18:32:07;;;;;;;14.18;8.40;;;;;;;;;;4937818;29;20051;-75
2021/11/19 18:35:18;;;;;;;14.05;8.05;;;;;;;;;;4936717;29;20051;-74
2021/11/19 18:38:24;;;;;;;12.27;7.33;;;;;;;;;;4939855;29;20036;-79
2021/11/19 18:41:30;;;;;;;11.10;7.32;;;;;;;;;;4944289;29;20633;-79
2021/11/19 18:44:35;;;;;;;16.58;8.50;;;;;;;;;;4944324;29;20040;-79
2021/11/19 18:47:40;;;;;;;14.15;8.18;;;;;;;;;;4944668;29;20039;-79